Time;durP1;ratioP1;P1;durP2;ratioP2;P2;SDS_P1;SDS_P2;PMS_P1;PMS_P2;Temp;Humidity;BMP_temperature;BMP_pressure;BME280_temperature;BME280_humidity;BME280_pressure;Samples;Min_cycle;Max_cycle;Signal;HPM_P1;HPM_P2
2021/08/10 00:01:15;;;;;;;6.63;2.90;;;;;;;17.43;70.17;100067.53;2193408;40;20462;-78
2021/08/10 00:02:47;;;;;;;8.73;2.75;;;;;;;17.46;69.95;100069.88;2195766;40;20528;-78
2021/08/10 00:04:20;;;;;;;5.10;2.22;;;;;;;17.46;69.57;100070.69;2189434;40;20044;-77
2021/08/10 00:05:52;;;;;;;5.50;2.55;;;;;;;17.45;69.97;100063.63;2193915;40;20043;-78
2021/08/10 00:07:24;;;;;;;7.55;2.88;;;;;;;17.48;69.69;100069.69;2198016;40;20038;-77
2021/08/10 00:08:55;;;;;;;5.63;2.35;;;;;;;17.50;69.82;100073.03;2201936;40;20043;-77
2021/08/10 00:10:27;;;;;;;5.80;2.40;;;;;;;17.54;69.68;100066.22;2196925;40;20027;-78
2021/08/10 00:12:00;;;;;;;5.60;2.20;;;;;;;17.58;69.60;100078.31;2196385;40;20111;-77
2021/08/10 00:13:31;;;;;;;5.47;2.40;;;;;;;17.56;69.23;100069.56;2194881;40;20035;-78
2021/08/10 00:15:04;;;;;;;7.47;3.10;;;;;;;17.54;69.27;100071.63;2195814;40;20035;-78
2021/08/10 00:16:37;;;;;;;9.00;3.40;;;;;;;17.45;69.64;100071.72;2196798;40;20432;-78
2021/08/10 00:18:10;;;;;;;9.02;3.30;;;;;;;17.33;70.09;100070.56;2202078;40;20058;-80
2021/08/10 00:19:41;;;;;;;6.90;2.70;;;;;;;17.22;70.32;100081.84;2197079;40;20034;-77
2021/08/10 00:21:13;;;;;;;8.15;3.50;;;;;;;17.18;70.77;100075.97;2201136;40;20053;-80
2021/08/10 00:22:45;;;;;;;6.55;3.55;;;;;;;17.14;70.69;100080.06;2197996;40;20035;-77
2021/08/10 00:24:16;;;;;;;6.95;2.95;;;;;;;17.09;71.03;100077.09;2195534;40;20065;-77
2021/08/10 00:25:48;;;;;;;8.27;2.42;;;;;;;17.04;71.43;100080.34;2195748;40;20047;-78
2021/08/10 00:27:20;;;;;;;6.38;2.90;;;;;;;17.07;71.21;100076.44;2197545;40;20423;-78
2021/08/10 00:28:52;;;;;;;7.55;3.17;;;;;;;17.07;71.31;100082.66;2198551;40;20034;-78
2021/08/10 00:30:24;;;;;;;6.22;2.70;;;;;;;17.10;71.46;100084.16;2198046;40;20030;-77
2021/08/10 00:31:57;;;;;;;5.78;2.42;;;;;;;17.15;71.17;100084.44;2200894;40;20428;-78
2021/08/10 00:33:29;;;;;;;5.25;2.72;;;;;;;17.17;71.13;100082.41;2196072;40;20427;-76
2021/08/10 00:35:01;;;;;;;6.30;2.63;;;;;;;17.17;70.98;100082.41;2196305;40;20039;-77
2021/08/10 00:36:33;;;;;;;4.38;2.33;;;;;;;17.19;70.92;100080.34;2196701;40;20029;-77
2021/08/10 00:38:05;;;;;;;8.43;2.78;;;;;;;17.21;71.13;100072.88;2200100;40;20049;-76
2021/08/10 00:39:38;;;;;;;6.93;2.58;;;;;;;17.21;70.99;100069.34;2195478;40;20027;-77
2021/08/10 00:41:09;;;;;;;4.78;2.33;;;;;;;17.19;71.18;100069.53;2196042;40;20085;-76
2021/08/10 00:42:42;;;;;;;5.82;2.83;;;;;;;17.23;71.21;100070.81;2197322;40;20027;-78
2021/08/10 00:44:14;;;;;;;6.13;2.60;;;;;;;17.20;70.98;100075.78;2193553;40;20036;-77
2021/08/10 00:45:45;;;;;;;5.47;2.78;;;;;;;17.15;71.22;100076.34;2196193;40;20042;-77
2021/08/10 00:47:19;;;;;;;6.65;2.70;;;;;;;17.13;71.31;100070.28;2190365;40;20558;-76
2021/08/10 00:48:50;;;;;;;6.18;2.55;;;;;;;17.14;71.29;100064.69;2194780;40;20041;-77
2021/08/10 00:50:22;;;;;;;5.80;2.80;;;;;;;17.14;71.21;100066.56;2196290;40;20050;-78
2021/08/10 00:51:54;;;;;;;9.02;3.30;;;;;;;17.10;71.40;100082.31;2195561;40;20039;-77
2021/08/10 00:53:27;;;;;;;8.27;3.67;;;;;;;17.05;71.75;100075.78;2195986;40;20091;-77
2021/08/10 00:55:02;;;;;;;6.07;2.53;;;;;;;16.96;71.58;100080.41;2196533;40;20038;-77
2021/08/10 00:56:34;;;;;;;7.03;2.67;;;;;;;16.89;71.77;100079.47;2196193;40;20027;-77
2021/08/10 00:58:08;;;;;;;5.32;3.05;;;;;;;16.86;72.08;100077.97;2197521;40;20058;-76
2021/08/10 00:59:40;;;;;;;7.80;2.83;;;;;;;16.83;71.78;100075.63;2200769;40;20042;-77
2021/08/10 01:01:11;;;;;;;6.30;3.13;;;;;;;16.83;71.79;100073.78;2198920;40;20039;-78
2021/08/10 01:02:45;;;;;;;8.18;2.90;;;;;;;16.79;71.87;100072.47;2196377;40;20047;-78
2021/08/10 01:04:16;;;;;;;6.53;2.50;;;;;;;16.75;72.39;100065.78;2195983;40;21162;-77
2021/08/10 01:05:50;;;;;;;6.47;2.75;;;;;;;16.71;72.49;100066.34;2199209;40;20315;-76
2021/08/10 01:07:29;;;;;;;6.72;3.08;;;;;;;16.67;72.75;100071.28;2196757;40;20035;-79
2021/08/10 01:09:07;;;;;;;7.38;2.75;;;;;;;16.65;72.92;100071.44;2196650;40;20061;-78
2021/08/10 01:10:45;;;;;;;8.23;2.88;;;;;;;16.61;72.81;100066.59;2196016;40;20046;-77
2021/08/10 01:12:20;;;;;;;5.80;2.63;;;;;;;16.56;73.19;100060.91;2196215;40;21437;-77
2021/08/10 01:13:57;;;;;;;8.23;3.58;;;;;;;16.53;73.22;100062.97;2194487;40;21369;-78
2021/08/10 01:15:36;;;;;;;7.93;2.75;;;;;;;16.51;73.33;100062.28;2198553;40;20034;-78
2021/08/10 01:17:16;;;;;;;6.03;2.63;;;;;;;16.49;73.46;100064.34;2200591;40;20039;-77
2021/08/10 01:18:55;;;;;;;6.30;2.15;;;;;;;16.44;73.51;100063.19;2195902;40;20058;-78
2021/08/10 01:21:00;;;;;;;7.35;2.50;;;;;;;16.40;73.36;100075.41;2191760;40;20370;-78
2021/08/10 01:22:36;;;;;;;7.60;2.53;;;;;;;16.31;73.73;100072.78;2201523;40;20291;-76
2021/08/10 01:24:17;;;;;;;6.65;2.17;;;;;;;16.29;73.50;100069.41;2197247;40;20035;-77
2021/08/10 01:25:58;;;;;;;4.72;2.13;;;;;;;16.26;73.79;100064.38;2195788;40;20046;-79
2021/08/10 01:27:57;;;;;;;4.97;2.22;;;;;;;16.30;73.52;100060.31;2195124;40;20035;-78
2021/08/10 01:29:34;;;;;;;6.93;2.20;;;;;;;16.36;73.59;100070.34;2190233;40;20046;-77
2021/08/10 01:31:19;;;;;;;4.72;2.30;;;;;;;16.43;73.34;100065.06;2192213;40;20065;-78
2021/08/10 01:32:53;;;;;;;4.32;2.00;;;;;;;16.44;73.14;100066.75;2196561;40;20046;-78
2021/08/10 01:34:29;;;;;;;5.22;2.10;;;;;;;16.46;72.74;100067.41;2196575;40;20039;-77
2021/08/10 01:36:03;;;;;;;6.00;2.50;;;;;;;16.47;72.83;100062.84;2200498;40;20035;-77
2021/08/10 01:37:37;;;;;;;5.35;2.10;;;;;;;16.42;73.21;100062.56;2199702;40;20034;-78
2021/08/10 01:39:11;;;;;;;5.72;2.60;;;;;;;16.34;73.14;100063.47;2196360;40;20043;-77
2021/08/10 01:40:45;;;;;;;6.35;2.67;;;;;;;16.27;73.72;100055.25;2196503;40;20042;-78
2021/08/10 01:42:18;;;;;;;6.45;2.45;;;;;;;16.23;73.49;100056.66;2196303;40;20054;-77
2021/08/10 01:43:49;;;;;;;6.28;2.42;;;;;;;16.26;73.43;100055.47;2196866;40;20035;-77
2021/08/10 01:45:23;;;;;;;4.93;2.08;;;;;;;16.24;73.69;100057.50;2196414;40;20039;-77
2021/08/10 01:46:58;;;;;;;7.78;2.80;;;;;;;16.20;73.93;100059.72;2189277;40;20687;-77
2021/08/10 01:48:30;;;;;;;5.05;2.47;;;;;;;16.13;73.65;100058.78;2188410;40;20347;-79
2021/08/10 01:50:04;;;;;;;6.03;2.55;;;;;;;16.09;73.90;100058.28;2192381;40;20039;-78
2021/08/10 01:51:37;;;;;;;5.43;2.60;;;;;;;16.05;74.29;100052.44;2190042;40;20435;-79
2021/08/10 01:53:10;;;;;;;4.22;2.17;;;;;;;16.06;74.28;100054.06;2196234;40;20035;-78
2021/08/10 01:54:43;;;;;;;4.60;2.20;;;;;;;16.12;74.10;100051.69;2196063;40;20027;-78
2021/08/10 01:56:15;;;;;;;5.63;2.75;;;;;;;16.17;73.82;100043.88;2195941;40;20046;-77
2021/08/10 01:57:47;;;;;;;5.30;2.10;;;;;;;16.21;73.88;100050.59;2195514;40;20035;-77
2021/08/10 01:59:20;;;;;;;8.35;2.53;;;;;;;16.28;73.66;100050.72;2196351;40;20045;-78
2021/08/10 02:00:54;;;;;;;5.75;2.85;;;;;;;16.34;73.56;100048.13;2195931;40;20043;-78
2021/08/10 02:02:27;;;;;;;5.28;2.53;;;;;;;16.40;73.50;100048.41;2196393;40;20050;-77
2021/08/10 02:04:03;;;;;;;5.15;2.60;;;;;;;16.46;73.63;100036.88;2195442;40;20042;-77
2021/08/10 02:05:36;;;;;;;8.35;3.10;;;;;;;16.50;73.28;100044.44;2195836;40;20419;-78
2021/08/10 02:07:08;;;;;;;10.15;4.00;;;;;;;16.49;73.47;100036.53;2196211;40;20042;-76
2021/08/10 02:08:42;;;;;;;7.03;3.22;;;;;;;16.48;73.30;100035.66;2196321;40;20046;-78
2021/08/10 02:10:15;;;;;;;6.35;3.42;;;;;;;16.48;73.67;100045.63;2196108;40;20038;-78
2021/08/10 02:11:48;;;;;;;7.85;3.38;;;;;;;16.48;73.63;100034.84;2195906;40;20558;-77
2021/08/10 02:13:20;;;;;;;9.25;4.20;;;;;;;16.49;73.38;100047.31;2196962;40;20035;-77
2021/08/10 02:14:54;;;;;;;13.35;3.80;;;;;;;16.43;73.91;100039.97;2199473;40;20061;-77
2021/08/10 02:16:27;;;;;;;8.02;3.42;;;;;;;16.39;73.92;100039.47;2198025;40;20034;-78
2021/08/10 02:18:05;;;;;;;7.55;3.45;;;;;;;16.36;74.39;100047.94;2196656;40;20038;-78
2021/08/10 02:19:37;;;;;;;6.65;2.70;;;;;;;16.30;74.57;100048.66;2196760;40;20063;-77
2021/08/10 02:21:13;;;;;;;8.13;3.00;;;;;;;16.29;74.17;100042.44;2197691;40;20046;-78
2021/08/10 02:22:48;;;;;;;6.22;3.30;;;;;;;16.29;74.35;100050.53;2201352;40;20315;-77
2021/08/10 02:24:23;;;;;;;7.10;2.90;;;;;;;16.28;74.20;100045.34;2201269;40;20477;-78
2021/08/10 02:25:55;;;;;;;6.75;2.67;;;;;;;16.22;74.30;100041.50;2196304;40;20035;-76
2021/08/10 02:27:32;;;;;;;5.55;3.05;;;;;;;16.14;73.91;100049.66;2201806;40;20314;-77
2021/08/10 02:29:04;;;;;;;4.82;2.58;;;;;;;16.04;74.06;100050.75;2201440;40;20050;-76
2021/08/10 02:30:39;;;;;;;5.97;2.60;;;;;;;15.96;74.35;100053.50;2195988;40;20426;-76
2021/08/10 02:32:14;;;;;;;8.52;2.70;;;;;;;15.87;74.53;100059.97;2196112;40;20039;-76
2021/08/10 02:33:48;;;;;;;4.72;3.00;;;;;;;15.79;74.73;100063.53;2182981;40;20036;-78
2021/08/10 02:35:21;;;;;;;6.07;2.60;;;;;;;15.69;75.07;100055.66;2194629;40;20035;-76
2021/08/10 02:36:58;;;;;;;4.68;2.25;;;;;;;15.62;75.41;100060.09;2188422;40;20035;-77
2021/08/10 02:38:32;;;;;;;7.15;2.70;;;;;;;15.57;75.54;100057.94;2191283;40;20042;-77
2021/08/10 02:40:09;;;;;;;5.93;2.67;;;;;;;15.53;75.76;100053.06;2201888;40;20120;-77
2021/08/10 02:41:42;;;;;;;5.18;2.83;;;;;;;15.49;75.76;100047.19;2199325;40;20037;-77
2021/08/10 02:43:15;;;;;;;5.30;2.50;;;;;;;15.47;75.57;100048.41;2189556;40;20047;-77
2021/08/10 02:44:49;;;;;;;5.45;2.83;;;;;;;15.44;76.13;100044.22;2190773;40;20039;-77
2021/08/10 02:46:20;;;;;;;5.78;2.70;;;;;;;15.47;75.95;100043.84;2197686;40;20035;-76
2021/08/10 02:47:54;;;;;;;8.95;2.58;;;;;;;15.48;75.97;100044.69;2199470;40;20415;-78
2021/08/10 02:49:27;;;;;;;6.50;2.65;;;;;;;15.46;75.78;100054.78;2197894;40;20039;-78
2021/08/10 02:50:59;;;;;;;6.05;2.90;;;;;;;15.47;75.72;100045.72;2195800;40;20403;-77
2021/08/10 02:52:31;;;;;;;4.60;2.40;;;;;;;15.50;75.50;100043.50;2196002;40;20031;-77
2021/08/10 02:54:03;;;;;;;4.05;2.00;;;;;;;15.56;75.48;100044.63;2197730;40;20039;-78
2021/08/10 02:55:40;;;;;;;6.40;2.50;;;;;;;15.64;75.38;100047.28;2201612;40;20062;-78
2021/08/10 02:57:19;;;;;;;4.85;2.08;;;;;;;15.71;74.89;100039.34;2198092;40;20031;-78
2021/08/10 02:58:57;;;;;;;5.03;2.30;;;;;;;15.75;74.79;100030.72;2190834;40;20042;-77
2021/08/10 03:00:41;;;;;;;6.13;2.80;;;;;;;15.80;74.76;100034.72;2198004;40;20030;-79
2021/08/10 03:02:20;;;;;;;5.60;2.90;;;;;;;15.80;74.71;100029.31;2200938;40;20046;-77
2021/08/10 03:03:55;;;;;;;5.22;2.92;;;;;;;15.83;74.60;100021.72;2200040;40;20034;-78
2021/08/10 03:05:31;;;;;;;4.50;2.40;;;;;;;15.86;74.36;100018.69;2199833;40;20046;-77
2021/08/10 03:07:05;;;;;;;8.93;4.40;;;;;;;15.88;74.40;100018.50;2200034;40;20438;-78
2021/08/10 03:08:44;;;;;;;7.95;3.60;;;;;;;15.89;74.57;100030.97;2199586;40;20039;-77
2021/08/10 03:10:17;;;;;;;5.95;3.08;;;;;;;15.94;74.19;100028.59;2199182;40;20312;-77
2021/08/10 03:11:51;;;;;;;7.80;3.55;;;;;;;15.91;74.12;100028.94;2202792;40;20033;-78
2021/08/10 03:13:25;;;;;;;7.00;2.50;;;;;;;15.86;74.48;100034.03;2202496;40;20035;-77
2021/08/10 03:14:58;;;;;;;7.35;2.83;;;;;;;15.87;74.15;100030.31;2202608;40;20043;-77
2021/08/10 03:16:32;;;;;;;4.93;3.08;;;;;;;15.90;74.17;100033.50;2195958;40;20038;-78
2021/08/10 03:18:08;;;;;;;6.75;2.90;;;;;;;15.90;74.18;100029.94;2195869;40;20035;-77
2021/08/10 03:19:41;;;;;;;5.97;2.58;;;;;;;15.85;74.29;100021.56;2195952;40;20323;-77
2021/08/10 03:21:15;;;;;;;6.30;2.60;;;;;;;15.83;75.01;100023.56;2195639;40;20039;-77
2021/08/10 03:22:49;;;;;;;3.95;2.13;;;;;;;15.86;74.88;100029.47;2195855;40;20045;-78
2021/08/10 03:24:21;;;;;;;6.25;3.10;;;;;;;15.87;74.95;100022.25;2197686;40;20039;-79
2021/08/10 03:25:53;;;;;;;5.90;2.65;;;;;;;15.83;74.98;100037.06;2201902;40;20042;-79
2021/08/10 03:27:26;;;;;;;7.72;2.75;;;;;;;15.84;75.09;100030.69;2197153;40;20046;-78
2021/08/10 03:28:58;;;;;;;5.78;2.92;;;;;;;15.85;75.16;100035.06;2195862;40;20079;-76
2021/08/10 03:30:30;;;;;;;6.78;2.70;;;;;;;15.86;75.14;100042.94;2193659;40;20031;-77
2021/08/10 03:32:05;;;;;;;6.57;2.88;;;;;;;15.89;75.33;100037.22;2195883;40;20043;-77
2021/08/10 03:33:37;;;;;;;5.63;2.50;;;;;;;15.89;75.22;100036.34;2195749;40;20043;-78
2021/08/10 03:35:10;;;;;;;7.72;2.75;;;;;;;15.90;75.32;100048.81;2198718;40;20043;-78
2021/08/10 03:36:44;;;;;;;6.80;3.40;;;;;;;15.87;75.27;100043.81;2200491;40;20576;-78
2021/08/10 03:38:17;;;;;;;4.50;2.30;;;;;;;15.87;75.23;100044.63;2189574;40;20039;-77
2021/08/10 03:39:50;;;;;;;4.93;2.75;;;;;;;15.85;75.16;100040.44;2191156;40;20046;-77
2021/08/10 03:41:23;;;;;;;5.13;2.80;;;;;;;15.83;75.48;100051.34;2196725;40;20042;-77
2021/08/10 03:42:55;;;;;;;6.68;2.67;;;;;;;15.82;75.38;100049.66;2196183;40;20046;-77
2021/08/10 03:44:28;;;;;;;7.88;3.72;;;;;;;15.81;75.29;100049.88;2192569;40;20039;-77
2021/08/10 03:46:02;;;;;;;13.10;3.28;;;;;;;15.74;75.44;100052.44;2191527;40;20042;-77
2021/08/10 03:47:34;;;;;;;5.43;2.50;;;;;;;15.65;75.46;100051.66;2199175;40;20129;-77
2021/08/10 03:49:08;;;;;;;6.15;3.50;;;;;;;15.60;75.84;100052.19;2191175;40;20354;-78
2021/08/10 03:50:40;;;;;;;6.85;3.15;;;;;;;15.54;75.94;100052.88;2196335;40;20035;-78
2021/08/10 03:52:15;;;;;;;6.35;3.42;;;;;;;15.49;76.15;100054.44;2195029;40;20323;-78
2021/08/10 03:53:47;;;;;;;6.45;2.67;;;;;;;15.44;76.28;100063.06;2196948;40;20061;-78
2021/08/10 03:55:19;;;;;;;6.82;3.20;;;;;;;15.39;76.31;100062.75;2195369;40;20046;-79
2021/08/10 03:56:54;;;;;;;5.78;2.92;;;;;;;15.37;76.55;100060.22;2193168;40;20053;-78
2021/08/10 03:58:28;;;;;;;6.82;3.50;;;;;;;15.34;76.17;100062.44;2195100;40;20038;-79
2021/08/10 04:00:03;;;;;;;4.63;2.40;;;;;;;15.33;76.11;100071.53;2191509;40;20063;-80
2021/08/10 04:01:37;;;;;;;4.45;2.50;;;;;;;15.32;76.21;100062.59;2195343;40;20047;-79
2021/08/10 04:03:11;;;;;;;8.40;2.88;;;;;;;15.33;75.82;100069.66;2191833;40;20612;-79
2021/08/10 04:04:45;;;;;;;6.70;3.10;;;;;;;15.29;75.44;100069.19;2195573;40;20043;-79
2021/08/10 04:06:17;;;;;;;7.07;2.70;;;;;;;15.29;75.28;100073.75;2192740;40;20058;-80
2021/08/10 04:07:51;;;;;;;5.18;2.30;;;;;;;15.28;75.59;100066.66;2193358;40;20054;-80
2021/08/10 04:09:23;;;;;;;7.65;3.00;;;;;;;15.30;74.95;100070.03;2193670;40;20059;-79
2021/08/10 04:10:55;;;;;;;6.95;2.70;;;;;;;15.31;75.11;100068.16;2197797;40;20038;-78
2021/08/10 04:12:27;;;;;;;6.97;3.50;;;;;;;15.32;75.34;100070.66;2193311;40;20042;-77
2021/08/10 04:14:00;;;;;;;8.23;2.90;;;;;;;15.31;75.26;100077.06;2196260;40;20050;-79
2021/08/10 04:15:32;;;;;;;8.82;3.25;;;;;;;15.32;75.65;100073.38;2194850;40;20035;-78
2021/08/10 04:17:06;;;;;;;8.60;3.33;;;;;;;15.31;75.71;100074.38;2195435;40;20031;-78
2021/08/10 04:18:39;;;;;;;6.13;2.95;;;;;;;15.31;75.53;100071.69;2195263;40;20494;-78
2021/08/10 04:20:11;;;;;;;7.50;3.50;;;;;;;15.38;75.57;100072.69;2195339;40;20062;-78
2021/08/10 04:21:44;;;;;;;9.80;4.40;;;;;;;15.42;75.08;100075.88;2194622;40;20046;-79
2021/08/10 04:23:17;;;;;;;7.47;3.60;;;;;;;15.42;75.38;100074.00;2193911;40;20038;-79
2021/08/10 04:24:49;;;;;;;5.65;3.08;;;;;;;15.47;75.18;100067.25;2193045;40;20079;-78
2021/08/10 04:26:21;;;;;;;6.18;3.08;;;;;;;15.57;74.95;100081.34;2195315;40;20062;-78
2021/08/10 04:27:53;;;;;;;7.55;3.55;;;;;;;15.61;74.67;100079.97;2195307;40;20058;-78
2021/08/10 04:29:25;;;;;;;6.53;3.10;;;;;;;15.59;74.69;100077.44;2195026;40;20042;-77
2021/08/10 04:30:58;;;;;;;6.68;2.78;;;;;;;15.64;74.39;100082.31;2196920;40;20054;-77
2021/08/10 04:32:29;;;;;;;5.22;2.55;;;;;;;15.72;74.26;100079.56;2195223;40;20055;-78
2021/08/10 04:34:01;;;;;;;5.43;2.38;;;;;;;15.78;73.82;100072.63;2196478;40;20038;-78
2021/08/10 04:35:33;;;;;;;5.97;2.58;;;;;;;15.79;73.90;100074.31;2195163;40;20046;-78
2021/08/10 04:37:05;;;;;;;7.05;2.75;;;;;;;15.81;73.52;100074.13;2196337;40;20358;-78
2021/08/10 04:38:38;;;;;;;7.15;3.10;;;;;;;15.80;73.76;100067.03;2194125;40;20289;-77
2021/08/10 04:40:11;;;;;;;6.88;3.75;;;;;;;15.80;73.66;100056.28;2195732;40;20039;-78
2021/08/10 04:41:42;;;;;;;6.95;3.28;;;;;;;15.74;73.94;100064.06;2194742;40;20051;-78
2021/08/10 04:43:14;;;;;;;5.93;2.92;;;;;;;15.74;73.73;100066.75;2195853;40;20065;-78
2021/08/10 04:44:46;;;;;;;6.18;3.35;;;;;;;15.80;73.74;100064.34;2194427;40;20026;-79
2021/08/10 04:46:18;;;;;;;6.82;2.88;;;;;;;15.90;73.36;100062.28;2196014;40;20062;-78
2021/08/10 04:47:49;;;;;;;5.40;2.50;;;;;;;15.99;73.26;100060.38;2194480;40;20055;-78
2021/08/10 04:49:21;;;;;;;7.43;3.17;;;;;;;16.05;73.32;100075.84;2195895;40;20355;-78
2021/08/10 04:50:53;;;;;;;5.35;2.50;;;;;;;16.06;73.47;100077.53;2194412;40;20450;-78
2021/08/10 04:52:25;;;;;;;7.78;3.17;;;;;;;16.11;73.16;100076.97;2200383;40;20041;-79
2021/08/10 04:53:58;;;;;;;8.18;2.38;;;;;;;16.12;73.36;100084.88;2197378;40;20059;-78
2021/08/10 04:55:30;;;;;;;9.00;3.00;;;;;;;16.14;73.39;100087.41;2195338;40;20057;-78
2021/08/10 04:57:02;;;;;;;7.20;2.75;;;;;;;16.12;73.22;100079.47;2198230;40;20038;-77
2021/08/10 04:58:34;;;;;;;9.07;2.20;;;;;;;16.14;73.67;100082.03;2195754;40;20054;-78
2021/08/10 05:00:07;;;;;;;6.38;2.45;;;;;;;16.18;73.32;100084.19;2196023;40;20062;-78
2021/08/10 05:01:39;;;;;;;7.38;3.30;;;;;;;16.19;73.18;100083.16;2194827;40;20046;-78
2021/08/10 05:03:11;;;;;;;6.43;3.05;;;;;;;16.18;73.22;100086.88;2196041;40;20085;-78
2021/08/10 05:04:43;;;;;;;7.90;3.38;;;;;;;16.16;73.24;100082.66;2193817;40;20050;-78
2021/08/10 05:06:15;;;;;;;5.85;2.83;;;;;;;16.15;73.42;100083.69;2196485;40;20067;-78
2021/08/10 05:07:47;;;;;;;6.28;3.40;;;;;;;16.18;73.35;100072.53;2194205;40;20050;-79
2021/08/10 05:09:20;;;;;;;9.40;4.38;;;;;;;16.23;73.53;100083.63;2197869;40;20027;-79
2021/08/10 05:10:54;;;;;;;8.80;3.55;;;;;;;16.22;73.30;100081.94;2195975;40;20419;-78
2021/08/10 05:12:26;;;;;;;9.65;3.72;;;;;;;16.21;73.29;100077.56;2194465;40;20066;-78
2021/08/10 05:13:57;;;;;;;8.55;3.20;;;;;;;16.23;73.62;100075.53;2181968;40;20036;-80
2021/08/10 05:15:29;;;;;;;7.13;3.70;;;;;;;16.27;73.42;100079.53;2188443;40;20040;-78
2021/08/10 05:17:01;;;;;;;6.18;2.83;;;;;;;16.27;73.19;100074.16;2183015;40;20320;-78
2021/08/10 05:18:33;;;;;;;11.80;3.63;;;;;;;16.32;73.08;100079.00;2181229;40;20048;-77
2021/08/10 05:20:06;;;;;;;10.30;4.07;;;;;;;16.31;73.07;100075.47;2181943;40;20032;-78
2021/08/10 05:21:37;;;;;;;13.68;3.88;;;;;;;16.29;73.33;100080.19;2183652;40;20035;-78
2021/08/10 05:23:09;;;;;;;10.43;3.30;;;;;;;16.28;73.06;100078.53;2182336;40;20090;-80
2021/08/10 05:24:42;;;;;;;13.73;3.90;;;;;;;16.31;73.00;100088.97;2184089;40;20058;-78
2021/08/10 05:26:14;;;;;;;7.03;3.55;;;;;;;16.37;72.79;100079.31;2183578;40;20050;-77
2021/08/10 05:27:46;;;;;;;9.20;4.00;;;;;;;16.38;72.86;100083.69;2183793;40;20043;-77
2021/08/10 05:29:18;;;;;;;8.73;3.88;;;;;;;16.40;72.62;100083.50;2183644;40;20052;-77
2021/08/10 05:30:49;;;;;;;12.30;4.10;;;;;;;16.44;72.50;100090.19;2184131;40;20051;-78
2021/08/10 05:32:21;;;;;;;10.43;3.65;;;;;;;16.48;72.37;100083.41;2185409;40;20035;-79
2021/08/10 05:33:53;;;;;;;9.68;4.25;;;;;;;16.47;72.32;100093.38;2181450;40;20044;-79
2021/08/10 05:35:25;;;;;;;11.88;3.88;;;;;;;16.49;72.63;100095.88;2185163;40;20043;-78
2021/08/10 05:36:56;;;;;;;12.20;3.83;;;;;;;16.54;72.64;100098.84;2183130;40;20074;-77
2021/08/10 05:38:28;;;;;;;11.27;3.95;;;;;;;16.60;72.30;100111.66;2180990;40;20039;-79
2021/08/10 05:40:02;;;;;;;9.00;3.35;;;;;;;16.58;71.89;100105.59;2181104;40;20444;-79
2021/08/10 05:41:34;;;;;;;10.80;4.20;;;;;;;16.59;71.79;100111.81;2186171;40;20083;-78
2021/08/10 05:43:06;;;;;;;10.55;3.45;;;;;;;16.60;72.18;100119.75;2182716;40;20040;-79
2021/08/10 05:44:38;;;;;;;9.18;3.53;;;;;;;16.62;71.89;100112.31;2184620;40;20040;-78
2021/08/10 05:46:10;;;;;;;8.32;2.90;;;;;;;16.65;71.79;100120.00;2181773;40;20059;-78
2021/08/10 05:47:42;;;;;;;8.77;3.63;;;;;;;16.69;71.45;100121.34;2187582;40;20425;-77
2021/08/10 05:49:13;;;;;;;12.95;3.95;;;;;;;16.71;71.42;100126.53;2182652;40;20505;-77
2021/08/10 05:50:46;;;;;;;14.65;4.45;;;;;;;16.69;71.35;100123.19;2181870;40;20036;-78
2021/08/10 05:52:18;;;;;;;19.67;4.65;;;;;;;16.68;71.63;100132.31;2182048;40;20052;-78
2021/08/10 05:53:50;;;;;;;11.05;3.75;;;;;;;16.71;71.64;100126.53;2183413;40;20079;-80
2021/08/10 05:55:23;;;;;;;15.15;3.95;;;;;;;16.78;71.47;100115.88;2183254;40;20043;-77
2021/08/10 05:56:55;;;;;;;13.90;5.32;;;;;;;16.83;71.29;100118.84;2180267;40;20587;-78
2021/08/10 05:58:26;;;;;;;9.85;4.88;;;;;;;16.88;71.33;100110.19;2178387;40;20055;-77
2021/08/10 05:59:58;;;;;;;10.05;4.20;;;;;;;16.93;70.79;100119.44;2182547;40;20036;-78
2021/08/10 06:01:30;;;;;;;11.15;3.58;;;;;;;16.97;70.89;100112.66;2184109;40;20428;-77
2021/08/10 06:03:02;;;;;;;6.72;3.42;;;;;;;17.03;70.61;100115.63;2180139;40;20040;-79
2021/08/10 06:04:34;;;;;;;7.53;2.90;;;;;;;17.06;70.54;100102.59;2180573;40;20066;-79
2021/08/10 06:06:05;;;;;;;9.02;3.85;;;;;;;17.09;70.39;100104.09;2183583;40;20048;-79
2021/08/10 06:07:37;;;;;;;6.63;3.03;;;;;;;17.08;70.26;100110.53;2184231;40;20043;-79
2021/08/10 06:09:09;;;;;;;6.20;3.35;;;;;;;17.09;70.01;100101.41;2182523;40;20075;-79
2021/08/10 06:10:42;;;;;;;6.70;3.40;;;;;;;17.09;69.96;100094.13;2186602;40;20039;-78
2021/08/10 06:12:15;;;;;;;7.95;3.15;;;;;;;17.11;69.90;100093.94;2181998;40;20027;-78
2021/08/10 06:13:47;;;;;;;7.68;4.57;;;;;;;17.12;69.72;100091.06;2194591;40;20062;-78
2021/08/10 06:15:19;;;;;;;5.72;3.50;;;;;;;17.11;69.60;100083.13;2193564;40;20501;-77
2021/08/10 06:16:52;;;;;;;7.57;3.70;;;;;;;17.15;69.77;100084.44;2200184;40;20054;-77
2021/08/10 06:18:23;;;;;;;7.60;3.58;;;;;;;17.21;69.46;100082.84;2194574;40;20039;-79
2021/08/10 06:19:55;;;;;;;7.70;3.88;;;;;;;17.22;69.07;100081.84;2194455;40;20035;-78
2021/08/10 06:21:27;;;;;;;6.65;3.78;;;;;;;17.29;68.91;100083.56;2194559;40;20042;-81
2021/08/10 06:23:00;;;;;;;11.60;4.85;;;;;;;17.37;68.59;100077.25;2196301;40;20055;-78
2021/08/10 06:24:32;;;;;;;8.07;4.32;;;;;;;17.41;67.92;100070.44;2197647;40;20082;-77
2021/08/10 06:26:05;;;;;;;7.65;4.03;;;;;;;17.45;67.95;100073.59;2195279;40;20048;-78
2021/08/10 06:27:37;;;;;;;6.97;3.13;;;;;;;17.49;68.08;100074.88;2195004;40;20047;-77
2021/08/10 06:29:09;;;;;;;8.48;3.17;;;;;;;17.53;67.74;100076.19;2191597;40;20059;-78
2021/08/10 06:30:41;;;;;;;6.05;3.08;;;;;;;17.59;67.82;100066.50;2194208;40;20461;-78
2021/08/10 06:32:12;;;;;;;5.78;3.00;;;;;;;17.67;67.45;100060.09;2195461;40;20042;-78
2021/08/10 06:33:44;;;;;;;6.32;3.47;;;;;;;17.69;67.38;100056.22;2195610;40;20051;-79
2021/08/10 06:35:16;;;;;;;7.47;3.90;;;;;;;17.74;67.17;100052.94;2194530;40;20065;-78
2021/08/10 06:36:48;;;;;;;6.78;3.05;;;;;;;17.80;67.23;100052.16;2198761;40;20041;-77
2021/08/10 06:38:20;;;;;;;5.63;2.80;;;;;;;17.91;66.82;100053.50;2192873;40;20416;-78
2021/08/10 06:39:52;;;;;;;5.93;3.05;;;;;;;18.01;66.54;100045.94;2189949;40;20058;-78
2021/08/10 06:41:26;;;;;;;6.22;3.08;;;;;;;18.09;66.38;100051.22;2193425;40;20038;-77
2021/08/10 06:42:57;;;;;;;7.20;3.53;;;;;;;18.14;66.29;100053.34;2182042;40;20039;-77
2021/08/10 06:44:29;;;;;;;7.30;2.70;;;;;;;18.10;66.44;100049.34;2192824;40;20050;-77
2021/08/10 06:46:01;;;;;;;9.77;3.45;;;;;;;18.09;66.75;100053.91;2195738;40;20061;-77
2021/08/10 06:47:33;;;;;;;9.82;3.28;;;;;;;18.10;66.77;100065.59;2195074;40;20404;-77
2021/08/10 06:49:05;;;;;;;6.60;3.10;;;;;;;18.09;67.14;100066.63;2195569;40;20031;-77
2021/08/10 06:50:36;;;;;;;6.68;3.30;;;;;;;18.08;67.38;100064.94;2193294;40;20047;-78
2021/08/10 06:52:09;;;;;;;10.38;3.80;;;;;;;18.08;67.56;100068.50;2198589;40;20035;-78
2021/08/10 06:53:41;;;;;;;6.20;2.53;;;;;;;18.13;67.39;100059.81;2180576;40;20050;-77
2021/08/10 06:55:13;;;;;;;9.73;3.47;;;;;;;18.20;67.61;100060.69;2193485;40;20027;-78
2021/08/10 06:56:46;;;;;;;6.25;2.97;;;;;;;18.25;67.30;100054.69;2193419;40;20050;-77
2021/08/10 06:58:18;;;;;;;5.40;2.72;;;;;;;18.37;67.22;100061.22;2194874;40;20070;-78
2021/08/10 06:59:50;;;;;;;5.70;2.28;;;;;;;18.53;66.80;100067.41;2194594;40;20035;-77
2021/08/10 07:01:22;;;;;;;5.25;2.60;;;;;;;18.66;66.28;100069.38;2192668;40;20053;-76
2021/08/10 07:02:54;;;;;;;9.00;2.78;;;;;;;18.76;65.64;100069.84;2194635;40;20070;-77
2021/08/10 07:04:25;;;;;;;4.72;2.53;;;;;;;18.82;65.14;100073.66;2194648;40;20050;-77
2021/08/10 07:05:57;;;;;;;5.93;2.22;;;;;;;18.94;64.39;100066.66;2195546;40;20030;-78
2021/08/10 07:07:29;;;;;;;5.80;2.40;;;;;;;19.06;63.88;100064.25;2191367;40;20305;-77
2021/08/10 07:09:04;;;;;;;5.55;2.20;;;;;;;19.15;63.69;100067.59;2193786;40;20063;-78
2021/08/10 07:10:36;;;;;;;4.97;2.03;;;;;;;19.21;63.09;100071.38;2192952;40;20395;-77
2021/08/10 07:12:10;;;;;;;5.80;2.50;;;;;;;19.27;62.58;100065.19;2195985;40;20319;-78
2021/08/10 07:13:41;;;;;;;6.40;2.47;;;;;;;19.28;62.40;100064.97;2192633;40;20054;-77